createdAt,value
2023-05-12T00:01:17.022Z,4.38
2023-05-12T00:03:43.755Z,4.22
2023-05-12T00:06:11.295Z,4.43
2023-05-12T00:08:38.118Z,4.15
2023-05-12T00:11:04.622Z,4.43
2023-05-12T00:13:31.137Z,5.00
2023-05-12T00:15:58.967Z,4.28
2023-05-12T00:18:28.229Z,4.30
2023-05-12T00:20:55.598Z,4.25
2023-05-12T00:23:22.921Z,4.25
2023-05-12T00:25:49.940Z,4.40
2023-05-12T00:28:17.778Z,4.95
2023-05-12T00:30:44.476Z,4.68
2023-05-12T00:33:11.090Z,4.47
2023-05-12T00:35:37.598Z,4.20
2023-05-12T00:38:04.133Z,4.07
2023-05-12T00:40:31.009Z,3.88
2023-05-12T00:42:57.621Z,3.50
2023-05-12T00:45:24.385Z,3.92
2023-05-12T00:47:52.300Z,3.70
2023-05-12T00:50:19.182Z,3.50
2023-05-12T00:52:47.127Z,4.40
2023-05-12T00:55:13.754Z,4.38
2023-05-12T00:57:41.704Z,3.97
2023-05-12T01:00:08.974Z,4.47
2023-05-12T01:02:37.716Z,4.03
2023-05-12T01:05:04.880Z,3.75
2023-05-12T01:07:33.103Z,4.07
2023-05-12T01:10:00.825Z,4.68
2023-05-12T01:12:32.128Z,3.60
2023-05-12T01:14:59.436Z,3.67
2023-05-12T01:17:36.085Z,3.42
2023-05-12T01:20:07.285Z,3.50
2023-05-12T01:22:35.854Z,3.40
2023-05-12T01:25:05.353Z,3.67
2023-05-12T01:27:33.490Z,4.03
2023-05-12T01:30:02.225Z,3.40
2023-05-12T01:32:32.609Z,3.92
2023-05-12T01:34:59.258Z,3.92
2023-05-12T01:37:26.934Z,3.88
2023-05-12T01:39:54.703Z,4.30
2023-05-12T01:42:21.490Z,3.92
2023-05-12T01:44:48.896Z,3.78
2023-05-12T01:47:16.004Z,3.72
2023-05-12T01:49:48.476Z,3.60
2023-05-12T01:52:16.190Z,3.33
2023-05-12T01:54:42.716Z,3.85
2023-05-12T01:57:10.912Z,3.25
2023-05-12T01:59:38.537Z,3.50
2023-05-12T02:02:06.461Z,3.35
2023-05-12T02:04:34.515Z,3.22
2023-05-12T02:07:01.853Z,3.30
2023-05-12T02:09:28.765Z,3.10
2023-05-12T02:11:59.641Z,2.50
2023-05-12T02:14:26.157Z,2.83
2023-05-12T02:16:55.608Z,3.10
2023-05-12T02:19:23.964Z,2.90
2023-05-12T02:21:50.535Z,3.00
2023-05-12T02:24:17.099Z,3.25
2023-05-12T02:26:44.516Z,2.83
2023-05-12T02:29:12.542Z,2.50
2023-05-12T02:31:39.161Z,2.80
2023-05-12T02:34:15.096Z,2.67
2023-05-12T02:36:41.721Z,2.50
2023-05-12T02:39:08.501Z,2.65
2023-05-12T02:41:35.613Z,2.55
2023-05-12T02:44:02.144Z,2.90
2023-05-12T02:46:28.701Z,3.13
2023-05-12T02:48:55.737Z,3.20
2023-05-12T02:51:22.192Z,3.03
2023-05-12T02:53:49.659Z,3.35
2023-05-12T02:56:17.537Z,3.15
2023-05-12T02:58:43.988Z,3.65
2023-05-12T03:01:11.848Z,4.13
2023-05-12T03:03:40.504Z,3.47
2023-05-12T03:06:07.780Z,3.78
2023-05-12T03:08:34.896Z,4.75
2023-05-12T03:11:02.080Z,4.10
2023-05-12T03:13:28.834Z,4.68
2023-05-12T03:15:55.680Z,4.82
2023-05-12T03:18:22.409Z,4.55
2023-05-12T03:20:50.961Z,5.20
2023-05-12T03:23:17.409Z,5.43
2023-05-12T03:25:43.961Z,5.50
2023-05-12T03:28:11.420Z,5.72
2023-05-12T03:30:38.281Z,5.78
2023-05-12T03:33:04.985Z,5.88
2023-05-12T03:35:31.783Z,6.30
2023-05-12T03:38:01.492Z,6.40
2023-05-12T03:40:28.584Z,6.10
2023-05-12T03:42:55.086Z,7.55
2023-05-12T03:45:21.883Z,7.65
2023-05-12T03:47:48.654Z,7.35
2023-05-12T03:50:15.551Z,8.73
2023-05-12T03:52:42.159Z,7.90
2023-05-12T03:55:09.154Z,7.60
2023-05-12T03:57:36.615Z,9.05
2023-05-12T04:00:05.135Z,8.77
2023-05-12T04:02:39.388Z,8.85
2023-05-12T04:05:08.584Z,9.23
2023-05-12T04:07:35.135Z,8.73
2023-05-12T04:10:01.992Z,9.60
2023-05-12T04:12:28.974Z,10.55
2023-05-12T04:14:55.843Z,10.27
2023-05-12T04:17:23.010Z,10.40
2023-05-12T04:19:49.528Z,10.73
2023-05-12T04:22:16.615Z,10.32
2023-05-12T04:24:43.147Z,11.52
2023-05-12T04:27:09.793Z,10.55
2023-05-12T04:29:36.965Z,10.98
2023-05-12T04:32:03.925Z,11.50
2023-05-12T04:34:30.652Z,11.82
2023-05-12T04:36:57.180Z,11.38
2023-05-12T04:39:23.725Z,11.93
2023-05-12T04:41:50.741Z,11.68
2023-05-12T04:44:18.352Z,13.18
2023-05-12T04:46:45.218Z,12.50
2023-05-12T04:49:11.725Z,13.05
2023-05-12T04:51:42.866Z,13.13
2023-05-12T04:54:10.368Z,14.18
2023-05-12T04:56:37.618Z,13.30
2023-05-12T04:59:04.781Z,13.00
2023-05-12T05:01:31.891Z,13.82
2023-05-12T05:03:58.607Z,14.95
2023-05-12T05:06:25.271Z,14.48
2023-05-12T05:08:53.116Z,15.15
2023-05-12T05:11:19.869Z,14.90
2023-05-12T05:13:46.380Z,14.30
2023-05-12T05:16:13.085Z,14.95
2023-05-12T05:18:42.490Z,14.65
2023-05-12T05:21:09.105Z,14.55
2023-05-12T05:23:36.298Z,15.20
2023-05-12T05:26:02.987Z,15.98
2023-05-12T05:28:29.515Z,15.02
2023-05-12T05:30:56.434Z,15.77
2023-05-12T05:33:23.130Z,16.05
2023-05-12T05:35:50.122Z,14.88
2023-05-12T05:38:16.810Z,15.40
2023-05-12T05:40:52.877Z,16.63
2023-05-12T05:43:21.265Z,16.20
2023-05-12T05:45:49.722Z,16.05
2023-05-12T05:48:16.552Z,15.95
2023-05-12T05:50:43.266Z,16.55
2023-05-12T05:53:09.904Z,17.30
2023-05-12T05:55:36.407Z,17.23
2023-05-12T05:58:02.975Z,17.52
2023-05-12T06:00:29.633Z,16.35
2023-05-12T06:02:56.385Z,16.92
2023-05-12T06:05:23.297Z,16.48
2023-05-12T06:07:49.919Z,16.90
2023-05-12T06:10:16.462Z,16.95
2023-05-12T06:12:43.255Z,17.88
2023-05-12T06:15:10.442Z,16.67
2023-05-12T06:17:37.041Z,16.77
2023-05-12T06:20:05.200Z,16.88
2023-05-12T06:22:31.813Z,15.93
2023-05-12T06:24:58.331Z,16.95
2023-05-12T06:27:24.898Z,16.30
2023-05-12T06:29:52.007Z,17.33
2023-05-12T06:32:18.903Z,17.40
2023-05-12T06:34:45.503Z,17.30
2023-05-12T06:37:12.150Z,17.55
2023-05-12T06:39:38.752Z,17.13
2023-05-12T06:42:06.459Z,16.38
2023-05-12T06:44:42.027Z,16.60
2023-05-12T06:47:09.158Z,16.77
2023-05-12T06:49:37.096Z,17.40
2023-05-12T06:52:04.786Z,17.45
2023-05-12T06:54:31.702Z,16.27
2023-05-12T06:56:58.524Z,18.15
2023-05-12T06:59:25.208Z,17.23
2023-05-12T07:01:51.813Z,16.48
2023-05-12T07:04:18.329Z,16.83
2023-05-12T07:06:44.822Z,16.58
2023-05-12T07:09:11.299Z,16.83
2023-05-12T07:11:38.060Z,16.02
2023-05-12T07:14:04.566Z,17.77
2023-05-12T07:16:31.080Z,17.15
2023-05-12T07:18:57.555Z,16.95
2023-05-12T07:21:24.428Z,16.85
2023-05-12T07:23:50.929Z,16.95
2023-05-12T07:26:18.547Z,16.58
2023-05-12T07:28:45.081Z,16.25
2023-05-12T07:31:11.817Z,18.08
2023-05-12T07:33:38.304Z,16.73
2023-05-12T07:36:05.031Z,16.30
2023-05-12T07:38:32.083Z,16.52
2023-05-12T07:41:00.054Z,15.80
2023-05-12T07:43:26.493Z,16.20
2023-05-12T07:45:54.574Z,14.73
2023-05-12T07:48:21.059Z,13.88
2023-05-12T07:50:47.666Z,15.65
2023-05-12T07:53:14.210Z,14.70
2023-05-12T07:55:41.185Z,14.00
2023-05-12T07:58:07.688Z,14.20
2023-05-12T08:00:34.384Z,12.10
2023-05-12T08:03:00.975Z,13.65
2023-05-12T08:05:27.634Z,13.45
2023-05-12T08:07:54.096Z,13.68
2023-05-12T08:10:20.649Z,12.88
2023-05-12T08:12:47.120Z,13.95
2023-05-12T08:15:13.667Z,13.40
2023-05-12T08:17:40.206Z,12.32
2023-05-12T08:20:07.286Z,12.80
2023-05-12T08:22:33.769Z,12.75
2023-05-12T08:25:00.321Z,13.07
2023-05-12T08:27:26.930Z,12.80
2023-05-12T08:29:53.455Z,11.85
2023-05-12T08:32:19.979Z,11.75
2023-05-12T08:34:46.661Z,11.88
2023-05-12T08:37:13.328Z,11.70
2023-05-12T08:39:39.909Z,11.60
2023-05-12T08:42:30.193Z,11.65
2023-05-12T08:44:59.222Z,11.40
2023-05-12T08:47:26.670Z,11.57
2023-05-12T08:50:01.157Z,10.20
2023-05-12T08:52:29.904Z,10.73
2023-05-12T08:54:56.989Z,11.00
2023-05-12T08:57:23.997Z,10.32
2023-05-12T08:59:54.500Z,10.70
2023-05-12T09:02:25.218Z,10.43
2023-05-12T09:04:52.525Z,9.45
2023-05-12T09:07:19.863Z,9.60
2023-05-12T09:09:52.138Z,10.40
2023-05-12T09:12:19.514Z,9.35
2023-05-12T09:14:51.961Z,9.20
2023-05-12T09:17:18.723Z,9.15
2023-05-12T09:19:45.143Z,8.82
2023-05-12T09:22:14.812Z,8.25
2023-05-12T09:24:41.606Z,8.07
2023-05-12T09:27:08.158Z,7.65
2023-05-12T09:29:45.159Z,7.75
2023-05-12T09:32:18.248Z,7.40
2023-05-12T09:34:44.747Z,6.72
2023-05-12T09:37:12.648Z,6.10
2023-05-12T09:39:40.462Z,5.57
2023-05-12T09:42:12.434Z,5.90
2023-05-12T09:44:39.805Z,6.05
2023-05-12T09:47:07.196Z,6.68
2023-05-12T09:49:33.625Z,6.30
2023-05-12T09:52:00.203Z,6.22
2023-05-12T09:54:28.299Z,6.43
2023-05-12T09:56:59.923Z,6.20
2023-05-12T09:59:34.494Z,6.72
2023-05-12T10:02:02.987Z,6.45
2023-05-12T10:04:45.949Z,6.15
2023-05-12T10:07:14.339Z,5.82
2023-05-12T10:09:42.557Z,5.68
2023-05-12T10:12:10.179Z,6.10
2023-05-12T10:14:40.972Z,4.97
2023-05-12T10:17:09.383Z,5.30
2023-05-12T10:19:36.213Z,5.45
2023-05-12T10:22:03.854Z,5.28
2023-05-12T10:24:30.313Z,5.25
2023-05-12T10:26:57.483Z,5.38
2023-05-12T10:29:32.826Z,5.38
2023-05-12T10:32:01.184Z,4.95
2023-05-12T10:34:33.937Z,4.57
2023-05-12T10:37:00.843Z,4.88
2023-05-12T10:39:32.787Z,4.60
2023-05-12T10:42:05.832Z,4.75
2023-05-12T10:44:32.306Z,4.80
2023-05-12T10:47:02.159Z,4.70
2023-05-12T10:49:39.390Z,4.07
2023-05-12T10:52:07.639Z,3.63
2023-05-12T10:54:44.355Z,3.75
2023-05-12T10:57:18.843Z,4.70
2023-05-12T10:59:57.637Z,3.95
2023-05-12T11:02:32.033Z,3.90
2023-05-12T11:05:07.023Z,3.83
2023-05-12T11:07:35.411Z,3.40
2023-05-12T11:10:05.287Z,3.08
2023-05-12T11:12:33.522Z,3.40
2023-05-12T11:15:01.608Z,3.65
2023-05-12T11:17:28.847Z,3.00
2023-05-12T11:19:55.747Z,2.90
2023-05-12T11:22:23.628Z,3.13
2023-05-12T11:24:51.285Z,2.85
2023-05-12T11:27:19.841Z,2.80
2023-05-12T11:29:59.580Z,2.95
2023-05-12T11:32:26.768Z,3.25
2023-05-12T11:34:53.385Z,2.88
2023-05-12T11:37:27.192Z,2.70
2023-05-12T11:39:53.849Z,2.85
2023-05-12T11:42:22.783Z,3.15
2023-05-12T11:44:50.885Z,2.80
2023-05-12T11:47:19.809Z,2.95
2023-05-12T11:49:48.582Z,2.30
2023-05-12T11:52:15.829Z,3.33
2023-05-12T11:55:11.543Z,3.35
2023-05-12T11:57:38.185Z,3.15
2023-05-12T12:00:07.638Z,3.20
2023-05-12T12:02:36.715Z,3.78
2023-05-12T12:05:03.526Z,3.20
2023-05-12T12:07:34.978Z,2.78
2023-05-12T12:10:14.704Z,3.38
2023-05-12T12:12:42.145Z,3.20
2023-05-12T12:15:09.999Z,3.00
2023-05-12T12:17:36.728Z,3.10
2023-05-12T12:20:03.486Z,3.45
2023-05-12T12:22:34.168Z,3.75
2023-05-12T12:25:02.304Z,3.15
2023-05-12T12:27:28.754Z,3.70
2023-05-12T12:29:55.354Z,3.90
2023-05-12T12:32:21.802Z,3.63
2023-05-12T12:34:49.035Z,3.45
2023-05-12T12:37:16.144Z,3.13
2023-05-12T12:39:42.804Z,3.50
2023-05-12T12:42:09.551Z,3.38
2023-05-12T12:44:36.045Z,2.95
2023-05-12T12:47:02.608Z,3.08
2023-05-12T12:49:29.039Z,3.50
2023-05-12T12:51:55.959Z,3.05
2023-05-12T12:54:22.550Z,3.63
2023-05-12T12:56:49.103Z,3.35
2023-05-12T12:59:15.556Z,3.40
2023-05-12T13:01:42.865Z,3.42
2023-05-12T13:04:09.483Z,3.88
2023-05-12T13:06:36.049Z,3.50
2023-05-12T13:09:03.865Z,3.63
2023-05-12T13:11:30.424Z,3.70
2023-05-12T13:13:56.893Z,3.92
2023-05-12T13:16:26.338Z,3.80
2023-05-12T13:18:52.877Z,3.83
2023-05-12T13:21:19.439Z,3.75
2023-05-12T13:23:45.921Z,3.50
2023-05-12T13:26:12.417Z,4.55
2023-05-12T13:28:38.894Z,4.00
2023-05-12T13:31:06.086Z,4.00
2023-05-12T13:33:32.764Z,4.25
2023-05-12T13:35:59.349Z,4.22
2023-05-12T13:38:26.294Z,4.10
2023-05-12T13:40:52.974Z,4.45
2023-05-12T13:43:19.467Z,4.00
2023-05-12T13:45:45.976Z,3.90
2023-05-12T13:48:12.547Z,4.00
2023-05-12T13:50:39.209Z,4.25
2023-05-12T13:53:06.521Z,4.30
2023-05-12T13:55:34.271Z,3.90
2023-05-12T13:58:00.920Z,4.05
2023-05-12T14:00:29.717Z,3.80
2023-05-12T14:02:57.735Z,3.83
2023-05-12T14:05:24.543Z,3.50
2023-05-12T14:07:51.254Z,3.80
2023-05-12T14:10:18.565Z,3.60
2023-05-12T14:12:45.137Z,3.30
2023-05-12T14:17:46.410Z,3.80
2023-05-12T14:20:13.081Z,3.28
2023-05-12T14:22:39.629Z,3.67
2023-05-12T14:25:06.445Z,3.60
2023-05-12T14:27:32.876Z,3.53
2023-05-12T14:29:59.341Z,4.30
2023-05-12T14:32:25.838Z,4.00
2023-05-12T14:34:52.358Z,4.00
2023-05-12T14:37:18.876Z,3.78
2023-05-12T14:39:45.425Z,4.38
2023-05-12T14:42:11.901Z,4.18
2023-05-12T14:44:38.339Z,4.50
2023-05-12T14:47:05.923Z,4.47
2023-05-12T14:49:33.941Z,3.95
2023-05-12T14:52:00.344Z,4.60
2023-05-12T14:54:26.855Z,4.20
2023-05-12T14:56:53.395Z,3.90
2023-05-12T14:59:19.826Z,4.22
2023-05-12T15:01:46.477Z,3.88
2023-05-12T15:04:13.266Z,3.47
2023-05-12T15:06:40.064Z,4.13
2023-05-12T15:09:07.210Z,3.95
2023-05-12T15:11:33.763Z,3.58
2023-05-12T15:14:00.258Z,4.00
2023-05-12T15:16:27.994Z,4.13
2023-05-12T15:18:54.688Z,12.40
2023-05-12T15:21:21.264Z,4.40
2023-05-12T15:23:47.803Z,4.07
2023-05-12T15:26:31.444Z,4.60
2023-05-12T15:28:59.858Z,3.90
2023-05-12T15:31:28.991Z,3.92
2023-05-12T15:33:59.268Z,3.97
2023-05-12T15:36:25.913Z,3.63
2023-05-12T15:38:52.395Z,3.92
2023-05-12T15:41:18.868Z,3.85
2023-05-12T15:43:45.336Z,4.03
2023-05-12T15:46:11.939Z,4.05
2023-05-12T15:48:39.321Z,4.00
2023-05-12T15:51:07.818Z,4.32
2023-05-12T15:53:34.501Z,4.38
2023-05-12T15:56:05.191Z,4.72
2023-05-12T15:58:32.073Z,5.32
2023-05-12T16:00:59.022Z,5.63
2023-05-12T16:03:25.653Z,5.30
2023-05-12T16:05:52.515Z,5.50
2023-05-12T16:08:19.103Z,5.35
2023-05-12T16:10:45.716Z,5.45
2023-05-12T16:13:12.179Z,5.35
2023-05-12T16:15:38.618Z,5.07
2023-05-12T16:18:07.513Z,7.07
2023-05-12T16:20:35.814Z,5.00
2023-05-12T16:23:02.601Z,4.88
2023-05-12T16:25:29.123Z,5.35
2023-05-12T16:27:55.914Z,5.45
2023-05-12T16:30:22.701Z,5.38
2023-05-12T16:32:49.273Z,5.20
2023-05-12T16:35:15.905Z,4.93
2023-05-12T16:37:42.685Z,4.97
2023-05-12T16:40:09.686Z,4.90
2023-05-12T16:42:37.141Z,4.57
2023-05-12T16:45:03.751Z,4.90
2023-05-12T16:47:30.247Z,5.00
2023-05-12T16:49:58.093Z,5.15
2023-05-12T16:52:25.499Z,5.13
2023-05-12T16:54:53.111Z,5.45
2023-05-12T16:57:20.133Z,5.70
2023-05-12T16:59:48.264Z,5.65
2023-05-12T17:02:15.085Z,5.75
2023-05-12T17:04:41.709Z,6.22
2023-05-12T17:07:08.252Z,6.18
2023-05-12T17:09:34.828Z,6.07
2023-05-12T17:12:01.591Z,6.45
2023-05-12T17:14:28.220Z,6.70
2023-05-12T17:16:54.838Z,6.38
2023-05-12T17:19:22.089Z,6.32
2023-05-12T17:21:48.879Z,6.60
2023-05-12T17:24:15.456Z,5.97
2023-05-12T17:26:42.132Z,5.93
2023-05-12T17:29:08.632Z,6.07
2023-05-12T17:31:35.239Z,5.97
2023-05-12T17:34:01.782Z,5.72
2023-05-12T17:36:28.879Z,6.03
2023-05-12T17:38:55.441Z,6.10
2023-05-12T17:41:21.916Z,5.97
2023-05-12T17:43:48.464Z,6.15
2023-05-12T17:46:14.986Z,6.10
2023-05-12T17:48:41.505Z,5.90
2023-05-12T17:51:08.119Z,5.75
2023-05-12T17:53:34.987Z,6.22
2023-05-12T17:56:01.633Z,6.20
2023-05-12T17:58:28.096Z,5.97
2023-05-12T18:00:55.644Z,6.35
2023-05-12T18:03:25.098Z,6.00
2023-05-12T18:05:53.273Z,5.90
2023-05-12T18:08:20.694Z,5.85
2023-05-12T18:10:47.479Z,5.75
2023-05-12T18:13:15.360Z,5.20
2023-05-12T18:15:42.448Z,5.45
2023-05-12T18:18:10.075Z,4.97
2023-05-12T18:20:37.236Z,4.82
2023-05-12T18:23:03.828Z,4.65
2023-05-12T18:25:30.280Z,4.70
2023-05-12T18:27:56.757Z,4.80
2023-05-12T18:30:23.312Z,4.30
2023-05-12T18:32:50.361Z,4.30
2023-05-12T18:35:16.941Z,3.50
2023-05-12T18:37:43.828Z,3.78
2023-05-12T18:40:11.175Z,4.13
2023-05-12T18:42:38.338Z,3.63
2023-05-12T18:45:05.468Z,3.53
2023-05-12T18:47:32.318Z,4.00
2023-05-12T18:49:59.082Z,3.83
2023-05-12T18:52:25.683Z,4.25
2023-05-12T18:54:52.078Z,4.18
2023-05-12T18:57:18.822Z,3.85
2023-05-12T18:59:45.473Z,4.18
2023-05-12T19:02:12.076Z,4.63
2023-05-12T19:04:39.103Z,5.03
2023-05-12T19:07:09.248Z,5.18
2023-05-12T19:09:36.654Z,5.63
2023-05-12T19:12:05.711Z,5.72
2023-05-12T19:14:32.293Z,5.60
2023-05-12T19:16:58.808Z,5.68
2023-05-12T19:19:25.343Z,5.55
2023-05-12T19:21:52.477Z,5.40
2023-05-12T19:24:19.328Z,5.30
2023-05-12T19:26:45.711Z,5.72
2023-05-12T19:29:12.212Z,6.00
2023-05-12T19:31:38.791Z,6.18
2023-05-12T19:34:05.408Z,6.22
2023-05-12T19:36:31.965Z,6.20
2023-05-12T19:39:00.232Z,5.90
2023-05-12T19:41:27.811Z,6.13
2023-05-12T19:43:55.326Z,5.75
2023-05-12T19:46:22.353Z,6.30
2023-05-12T19:48:48.989Z,6.03
2023-05-12T19:51:15.449Z,6.28
2023-05-12T19:53:43.595Z,5.60
2023-05-12T19:56:10.133Z,5.40
2023-05-12T19:58:36.584Z,5.15
2023-05-12T20:01:03.086Z,5.43
2023-05-12T20:03:29.664Z,5.18
2023-05-12T20:05:56.264Z,6.10
2023-05-12T20:08:22.696Z,5.40
2023-05-12T20:10:49.148Z,6.10
2023-05-12T20:13:15.598Z,5.78
2023-05-12T20:15:43.948Z,5.88
2023-05-12T20:18:12.567Z,5.90
2023-05-12T20:20:39.095Z,6.50
2023-05-12T20:23:05.713Z,6.25
2023-05-12T20:25:33.153Z,6.68
2023-05-12T20:27:59.848Z,5.60
2023-05-12T20:30:26.768Z,5.55
2023-05-12T20:32:53.437Z,6.60
2023-05-12T20:35:20.431Z,6.53
2023-05-12T20:37:47.280Z,6.78
2023-05-12T20:40:13.889Z,6.32
2023-05-12T20:42:40.483Z,6.07
2023-05-12T20:45:07.586Z,7.28
2023-05-12T20:47:34.818Z,6.68
2023-05-12T20:50:05.472Z,6.70
2023-05-12T20:52:33.535Z,6.80
2023-05-12T20:55:00.449Z,7.32
2023-05-12T20:57:27.215Z,7.32
2023-05-12T20:59:56.549Z,7.50
2023-05-12T21:02:27.635Z,7.68
2023-05-12T21:04:54.839Z,7.32
2023-05-12T21:07:21.256Z,6.90
2023-05-12T21:09:47.863Z,8.00
2023-05-12T21:12:14.418Z,7.50
2023-05-12T21:14:42.554Z,8.60
2023-05-12T21:17:10.383Z,8.02
2023-05-12T21:19:37.981Z,7.72
2023-05-12T21:22:05.815Z,8.10
2023-05-12T21:24:33.119Z,7.55
2023-05-12T21:27:03.653Z,7.95
2023-05-12T21:29:32.294Z,8.00
2023-05-12T21:31:59.445Z,7.50
2023-05-12T21:34:26.108Z,8.10
2023-05-12T21:36:52.892Z,8.23
2023-05-12T21:39:19.313Z,8.30
2023-05-12T21:41:45.971Z,7.78
2023-05-12T21:44:12.694Z,8.32
2023-05-12T21:46:39.187Z,7.75
2023-05-12T21:49:05.720Z,7.20
2023-05-12T21:51:33.158Z,7.95
2023-05-12T21:54:00.044Z,7.63
2023-05-12T21:56:26.787Z,8.23
2023-05-12T21:58:53.285Z,7.45
2023-05-12T22:01:19.830Z,7.80
2023-05-12T22:03:46.417Z,7.72
2023-05-12T22:06:12.970Z,7.70
2023-05-12T22:08:39.512Z,7.57
2023-05-12T22:11:06.100Z,7.85
2023-05-12T22:13:32.573Z,7.35
2023-05-12T22:15:59.950Z,7.57
2023-05-12T22:18:26.447Z,7.55
2023-05-12T22:20:52.929Z,7.70
2023-05-12T22:23:19.329Z,7.60
2023-05-12T22:25:45.873Z,7.80
2023-05-12T22:28:12.299Z,6.97
2023-05-12T22:30:38.726Z,7.63
2023-05-12T22:33:05.271Z,7.55
2023-05-12T22:35:31.706Z,7.03
2023-05-12T22:37:58.217Z,6.95
2023-05-12T22:40:26.923Z,6.63
2023-05-12T22:42:53.430Z,6.65
2023-05-12T22:45:20.037Z,6.75
2023-05-12T22:47:46.677Z,6.47
2023-05-12T22:50:13.358Z,6.63
2023-05-12T22:52:39.917Z,6.68
2023-05-12T22:55:06.861Z,6.47
2023-05-12T22:57:33.354Z,6.35
2023-05-12T23:00:00.243Z,6.38
2023-05-12T23:02:26.759Z,6.43
2023-05-12T23:04:53.236Z,6.35
2023-05-12T23:07:19.637Z,6.40
2023-05-12T23:09:46.148Z,6.03
2023-05-12T23:12:12.617Z,6.15
2023-05-12T23:14:39.099Z,5.35
2023-05-12T23:17:05.877Z,5.93
2023-05-12T23:19:32.420Z,5.95
2023-05-12T23:21:58.947Z,5.43
2023-05-12T23:24:25.489Z,6.43
2023-05-12T23:26:52.439Z,6.15
2023-05-12T23:29:18.952Z,6.28
2023-05-12T23:31:45.512Z,6.70
2023-05-12T23:34:12.419Z,5.78
2023-05-12T23:36:38.955Z,5.65
2023-05-12T23:39:05.477Z,6.00
2023-05-12T23:41:33.870Z,5.95
2023-05-12T23:44:00.340Z,5.60
2023-05-12T23:46:26.973Z,6.00
2023-05-12T23:48:55.567Z,5.47
2023-05-12T23:51:22.902Z,4.95
2023-05-12T23:53:49.423Z,6.10
2023-05-12T23:56:15.880Z,5.43
2023-05-12T23:58:42.501Z,6.28
